Time;durP1;ratioP1;P1;durP2;ratioP2;P2;SDS_P1;SDS_P2;PMS_P1;PMS_P2;Temp;Humidity;BMP_temperature;BMP_pressure;BME280_temperature;BME280_humidity;BME280_pressure;Samples;Min_cycle;Max_cycle;Signal;HPM_P1;HPM_P2
2022/07/09 00:00:22;;;;;;;5;10.3;;;;;;;14.6;100;99270;;;;
2022/07/09 00:11:22;;;;;;;3.9;7.9;;;;;;;14.6;100;99280;;;;
2022/07/09 00:21:22;;;;;;;3.9;7.9;;;;;;;14.6;100;99270;;;;
2022/07/09 00:31:22;;;;;;;3.9;7.9;;;;;;;14.6;100;99270;;;;
2022/07/09 00:42:24;;;;;;;3.4;7;;;;;;;14.6;100;99270;;;;
2022/07/09 00:52:22;;;;;;;3.4;7;;;;;;;14.6;100;99270;;;;
2022/07/09 01:02:22;;;;;;;3.4;7;;;;;;;14.6;100;99260;;;;
2022/07/09 01:12:22;;;;;;;4.3;7.5;;;;;;;14.4;100;99250;;;;
2022/07/09 01:23:22;;;;;;;4.3;7.5;;;;;;;14.4;100;99250;;;;
2022/07/09 01:33:22;;;;;;;4.3;7.5;;;;;;;14.2;100;99240;;;;
2022/07/09 01:43:22;;;;;;;5.5;12;;;;;;;14.3;100;99230;;;;
2022/07/09 01:53:22;;;;;;;5.5;12;;;;;;;14.3;100;99220;;;;
2022/07/09 02:04:22;;;;;;;5.5;12;;;;;;;14.1;100;99210;;;;
2022/07/09 02:14:22;;;;;;;5.7;14.4;;;;;;;14;100;99210;;;;
2022/07/09 02:24:22;;;;;;;5.7;14.4;;;;;;;14.1;100;99210;;;;
2022/07/09 02:34:22;;;;;;;5.7;14.4;;;;;;;14.1;100;99210;;;;
2022/07/09 02:45:22;;;;;;;5.4;10.1;;;;;;;14.1;100;99200;;;;
2022/07/09 02:55:22;;;;;;;5.4;10.1;;;;;;;14.1;100;99200;;;;
2022/07/09 03:05:23;;;;;;;5.4;10.1;;;;;;;14.2;100;99200;;;;
2022/07/09 03:16:23;;;;;;;4.9;8.4;;;;;;;14.1;100;99200;;;;
2022/07/09 03:26:22;;;;;;;4.9;8.4;;;;;;;14.1;100;99200;;;;
2022/07/09 03:37:22;;;;;;;6;12.3;;;;;;;14.1;100;99200;;;;
2022/07/09 03:47:23;;;;;;;6;12.3;;;;;;;14;100;99190;;;;
2022/07/09 03:58:22;;;;;;;6;12.3;;;;;;;14.3;100;99200;;;;
2022/07/09 04:08:22;;;;;;;5.3;11.1;;;;;;;14.4;100;99200;;;;
2022/07/09 04:18:23;;;;;;;5.3;11.1;;;;;;;14.2;100;99200;;;;
2022/07/09 04:28:22;;;;;;;5.3;11.1;;;;;;;14.3;100;99190;;;;
2022/07/09 04:39:24;;;;;;;5.4;9.5;;;;;;;14.6;100;99190;;;;
2022/07/09 04:49:24;;;;;;;5.4;9.5;;;;;;;15.2;100;99190;;;;
2022/07/09 05:00:22;;;;;;;5.4;9.5;;;;;;;15.7;100;99210;;;;
2022/07/09 05:10:22;;;;;;;5.5;10.7;;;;;;;15.6;100;99220;;;;
2022/07/09 05:21:22;;;;;;;5.5;10.7;;;;;;;15.9;100;99220;;;;
2022/07/09 05:32:22;;;;;;;5.5;10.7;;;;;;;16;100;99210;;;;
2022/07/09 05:43:22;;;;;;;5.4;10.1;;;;;;;15.9;100;99210;;;;
2022/07/09 05:53:22;;;;;;;5.4;10.1;;;;;;;16.8;100;99210;;;;
2022/07/09 06:04:23;;;;;;;5.4;10.1;;;;;;;17;100;99200;;;;
2022/07/09 06:15:22;;;;;;;4.7;8.4;;;;;;;16.9;100;99200;;;;
2022/07/09 06:25:23;;;;;;;4.7;8.4;;;;;;;17.1;100;99200;;;;
2022/07/09 06:35:22;;;;;;;4.7;8.4;;;;;;;16.5;100;99190;;;;
2022/07/09 06:45:23;;;;;;;4.9;8.1;;;;;;;16.8;100;99180;;;;
2022/07/09 06:56:23;;;;;;;4.9;8.1;;;;;;;17.2;100;99180;;;;
2022/07/09 07:07:22;;;;;;;5;10.1;;;;;;;17.6;100;99180;;;;
2022/07/09 07:18:23;;;;;;;5;10.1;;;;;;;17.8;100;99180;;;;
2022/07/09 07:28:23;;;;;;;5;10.1;;;;;;;17.8;100;99180;;;;
2022/07/09 07:39:24;;;;;;;4.6;11.1;;;;;;;17.5;100;99180;;;;
2022/07/09 07:50:22;;;;;;;4.6;11.1;;;;;;;18.2;100;99180;;;;
2022/07/09 08:00:22;;;;;;;4.6;11.1;;;;;;;18.7;100;99180;;;;
2022/07/09 08:10:23;;;;;;;3.4;7.2;;;;;;;17.4;100;99170;;;;
2022/07/09 08:20:22;;;;;;;3.4;7.2;;;;;;;18.5;100;99170;;;;
2022/07/09 08:31:22;;;;;;;3.4;7.2;;;;;;;18.9;100;99160;;;;
2022/07/09 08:41:22;;;;;;;3.1;6;;;;;;;19.2;100;99160;;;;
2022/07/09 08:52:22;;;;;;;3.1;6;;;;;;;19.8;100;99160;;;;
2022/07/09 09:02:22;;;;;;;3.1;6;;;;;;;19.7;100;99150;;;;
2022/07/09 09:13:23;;;;;;;2.3;5.1;;;;;;;20.1;100;99140;;;;
2022/07/09 09:24:23;;;;;;;2.3;5.1;;;;;;;20.5;100;99120;;;;
2022/07/09 09:35:23;;;;;;;2.3;5.1;;;;;;;21.5;100;99130;;;;
2022/07/09 09:46:22;;;;;;;2.5;5.5;;;;;;;21.7;100;99110;;;;
2022/07/09 09:57:24;;;;;;;2.5;5.5;;;;;;;21.8;100;99100;;;;
2022/07/09 10:07:22;;;;;;;1.4;4.2;;;;;;;20.9;100;99100;;;;
2022/07/09 10:18:22;;;;;;;1.4;4.2;;;;;;;20.4;100;99090;;;;
2022/07/09 10:28:24;;;;;;;1.4;4.2;;;;;;;20;100;99080;;;;
2022/07/09 10:39:22;;;;;;;2;5.8;;;;;;;21.5;100;99060;;;;
2022/07/09 10:50:23;;;;;;;2;5.8;;;;;;;21.4;100;99030;;;;
2022/07/09 11:00:22;;;;;;;2;5.8;;;;;;;21.4;100;99020;;;;
2022/07/09 11:11:23;;;;;;;1.8;4;;;;;;;21.8;100;99010;;;;
2022/07/09 11:21:23;;;;;;;1.8;4;;;;;;;21.4;100;99020;;;;
2022/07/09 11:32:22;;;;;;;1.8;4;;;;;;;21.8;100;99010;;;;
2022/07/09 11:42:23;;;;;;;1.8;4.5;;;;;;;22.2;100;99000;;;;
2022/07/09 11:52:23;;;;;;;1.8;4.5;;;;;;;22.3;100;98990;;;;
2022/07/09 12:03:22;;;;;;;1.8;4.5;;;;;;;21.8;100;98970;;;;
2022/07/09 12:14:23;;;;;;;1.8;6;;;;;;;22.2;100;98960;;;;
2022/07/09 12:25:23;;;;;;;1.8;6;;;;;;;22;100;98950;;;;
2022/07/09 12:36:22;;;;;;;1.8;6;;;;;;;22.4;98.7;98940;;;;
2022/07/09 12:47:22;;;;;;;1.6;3.4;;;;;;;21.5;100;98930;;;;
2022/07/09 12:57:23;;;;;;;1.6;3.4;;;;;;;21.9;100;98900;;;;
2022/07/09 13:07:23;;;;;;;1.3;4.1;;;;;;;22.5;100;98890;;;;
2022/07/09 13:18:23;;;;;;;1.3;4.1;;;;;;;22.8;96.6;98880;;;;
2022/07/09 13:28:22;;;;;;;1.3;4.1;;;;;;;23;97.6;98860;;;;
2022/07/09 13:39:23;;;;;;;1.5;4.8;;;;;;;23;96.3;98860;;;;
2022/07/09 13:49:22;;;;;;;1.5;4.8;;;;;;;23.2;95.7;98840;;;;
2022/07/09 13:59:23;;;;;;;1.5;4.8;;;;;;;23;94.1;98830;;;;
2022/07/09 14:10:23;;;;;;;1.5;3.4;;;;;;;22.2;98.9;98820;;;;
2022/07/09 14:20:23;;;;;;;1.5;3.4;;;;;;;22.8;95.3;98800;;;;
2022/07/09 14:30:23;;;;;;;1.5;3.4;;;;;;;23.8;87.7;98790;;;;
2022/07/09 14:40:23;;;;;;;1.4;3.6;;;;;;;24;83.4;98780;;;;
2022/07/09 14:50:23;;;;;;;1.4;3.6;;;;;;;23.5;73.9;98780;;;;
2022/07/09 15:01:22;;;;;;;1.4;3.6;;;;;;;23.2;65.9;98770;;;;
2022/07/09 15:11:22;;;;;;;1.5;5.9;;;;;;;23.5;64.5;98760;;;;
2022/07/09 15:21:23;;;;;;;1.5;5.9;;;;;;;22.6;67.5;98760;;;;
2022/07/09 15:32:22;;;;;;;1.5;5.9;;;;;;;25.9;59.1;98760;;;;
2022/07/09 15:42:22;;;;;;;1.7;4.9;;;;;;;25.1;57.1;98740;;;;
2022/07/09 15:52:23;;;;;;;1.7;4.9;;;;;;;24;60.1;98720;;;;
2022/07/09 16:03:23;;;;;;;1.7;4.9;;;;;;;23.5;63;98710;;;;
2022/07/09 16:14:22;;;;;;;2;3.9;;;;;;;22.2;66.4;98700;;;;
2022/07/09 16:24:23;;;;;;;2;3.9;;;;;;;21.8;70.3;98700;;;;
2022/07/09 16:35:23;;;;;;;2;3.9;;;;;;;21.5;73;98710;;;;
2022/07/09 16:45:23;;;;;;;2;3.6;;;;;;;21.1;75;98710;;;;
2022/07/09 16:56:23;;;;;;;2;3.6;;;;;;;21;75.6;98700;;;;
2022/07/09 17:06:23;;;;;;;2;3.6;;;;;;;20.9;76.4;98700;;;;
2022/07/09 17:17:23;;;;;;;2.7;6;;;;;;;20.6;78.4;98690;;;;
2022/07/09 17:28:23;;;;;;;2.7;6;;;;;;;20.3;80.6;98690;;;;
2022/07/09 17:39:23;;;;;;;2.4;5.6;;;;;;;20;82.8;98690;;;;
2022/07/09 17:50:23;;;;;;;2.4;5.6;;;;;;;19.6;87.3;98690;;;;
2022/07/09 18:01:23;;;;;;;2.4;5.6;;;;;;;19.4;87.1;98680;;;;
2022/07/09 18:11:23;;;;;;;2.5;7.2;;;;;;;19.3;88.4;98680;;;;
2022/07/09 18:22:22;;;;;;;2.5;7.2;;;;;;;19;89;98690;;;;
2022/07/09 18:32:23;;;;;;;2.5;7.2;;;;;;;18.9;91;98680;;;;
2022/07/09 18:43:23;;;;;;;3;8.9;;;;;;;18.7;94.7;98680;;;;
2022/07/09 18:53:23;;;;;;;3;8.9;;;;;;;18.6;97.6;98680;;;;
2022/07/09 19:04:23;;;;;;;3;8.9;;;;;;;18.4;100;98680;;;;
2022/07/09 19:14:23;;;;;;;4.1;7;;;;;;;18.3;100;98690;;;;
2022/07/09 19:24:23;;;;;;;4.1;7;;;;;;;18.1;100;98680;;;;
2022/07/09 19:34:23;;;;;;;4.1;7;;;;;;;18;100;98680;;;;
2022/07/09 19:45:25;;;;;;;3.9;8.6;;;;;;;17.8;100;98680;;;;
2022/07/09 19:56:23;;;;;;;3.9;8.6;;;;;;;17.7;100;98680;;;;
2022/07/09 20:07:23;;;;;;;3.9;8.6;;;;;;;17.5;100;98680;;;;
2022/07/09 20:18:23;;;;;;;4.3;8.3;;;;;;;17.4;100;98690;;;;
2022/07/09 20:29:23;;;;;;;4.3;8.3;;;;;;;17.3;100;98700;;;;
2022/07/09 20:39:23;;;;;;;4.7;8.3;;;;;;;17.2;100;98700;;;;
2022/07/09 20:50:23;;;;;;;4.7;8.3;;;;;;;16.8;100;98700;;;;
2022/07/09 21:01:23;;;;;;;4.7;8.3;;;;;;;16.6;100;98700;;;;
2022/07/09 21:11:23;;;;;;;3.9;7.7;;;;;;;16.4;100;98700;;;;
2022/07/09 21:22:25;;;;;;;3.9;7.7;;;;;;;16.2;100;98700;;;;
2022/07/09 21:33:23;;;;;;;3.9;7.7;;;;;;;15.8;100;98710;;;;
2022/07/09 21:44:23;;;;;;;4.3;7.1;;;;;;;15.3;100;98710;;;;
2022/07/09 21:54:23;;;;;;;4.3;7.1;;;;;;;15.1;100;98700;;;;
2022/07/09 22:05:23;;;;;;;4.3;7.1;;;;;;;14.9;100;98690;;;;
2022/07/09 22:15:23;;;;;;;6;10.8;;;;;;;14.5;100;98690;;;;
2022/07/09 22:25:23;;;;;;;6;10.8;;;;;;;14.3;100;98680;;;;
2022/07/09 22:36:23;;;;;;;6;10.8;;;;;;;14.2;100;98670;;;;
2022/07/09 22:46:23;;;;;;;3.7;8.6;;;;;;;14;100;98670;;;;
2022/07/09 22:56:23;;;;;;;3.7;8.6;;;;;;;13.9;100;98670;;;;
2022/07/09 23:06:23;;;;;;;3.7;8.6;;;;;;;13.8;100;98660;;;;
2022/07/09 23:16:27;;;;;;;3.8;6.9;;;;;;;13.7;100;98650;;;;
2022/07/09 23:27:23;;;;;;;3.8;6.9;;;;;;;13.7;100;98640;;;;
2022/07/09 23:37:23;;;;;;;4.7;7.9;;;;;;;13.6;100;98650;;;;
2022/07/09 23:48:23;;;;;;;4.7;7.9;;;;;;;13.6;100;98640;;;;
2022/07/09 23:59:23;;;;;;;4.7;7.9;;;;;;;13.8;100;98640;;;;
